createdAt,value
2019-04-30T00:01:38.913Z,1.70
2019-04-30T00:04:15.766Z,2.17
2019-04-30T00:06:47.419Z,2.27
2019-04-30T00:09:20.372Z,2.17
2019-04-30T00:11:57.924Z,2.07
2019-04-30T00:14:27.414Z,2.30
2019-04-30T00:16:58.108Z,2.10
2019-04-30T00:19:29.552Z,1.90
2019-04-30T00:22:01.785Z,2.10
2019-04-30T00:24:33.248Z,2.17
2019-04-30T00:27:05.164Z,2.00
2019-04-30T00:29:36.732Z,2.47
2019-04-30T00:32:08.272Z,2.40
2019-04-30T00:34:39.595Z,2.43
2019-04-30T00:37:13.986Z,2.20
2019-04-30T00:39:50.716Z,2.20
2019-04-30T00:42:23.902Z,1.90
2019-04-30T00:44:51.038Z,2.37
2019-04-30T00:47:22.581Z,2.07
2019-04-30T00:49:58.923Z,2.17
2019-04-30T00:52:29.463Z,2.17
2019-04-30T00:55:00.353Z,2.67
2019-04-30T00:57:37.366Z,2.27
2019-04-30T01:00:07.741Z,2.13
2019-04-30T01:03:07.860Z,2.00
2019-04-30T01:05:39.680Z,2.13
2019-04-30T01:08:10.083Z,2.07
2019-04-30T01:10:41.173Z,2.27
2019-04-30T01:13:12.209Z,2.00
2019-04-30T01:15:44.023Z,2.50
2019-04-30T01:18:16.390Z,2.10
2019-04-30T01:20:48.769Z,2.40
2019-04-30T01:23:20.617Z,2.23
2019-04-30T01:25:51.815Z,2.50
2019-04-30T01:28:24.416Z,1.83
2019-04-30T01:30:58.686Z,2.03
2019-04-30T01:33:34.717Z,1.93
2019-04-30T01:36:04.058Z,1.87
2019-04-30T01:38:35.251Z,1.97
2019-04-30T01:41:06.310Z,2.17
2019-04-30T01:43:38.602Z,1.80
2019-04-30T01:46:13.807Z,2.70
2019-04-30T01:48:43.660Z,2.13
2019-04-30T01:51:18.364Z,1.90
2019-04-30T01:53:48.579Z,2.03
2019-04-30T01:56:38.807Z,1.87
2019-04-30T01:59:19.056Z,2.50
2019-04-30T02:01:50.904Z,2.40
2019-04-30T02:04:22.081Z,2.30
2019-04-30T02:06:53.251Z,2.40
2019-04-30T02:09:24.563Z,2.60
2019-04-30T02:11:53.652Z,2.90
2019-04-30T02:14:24.817Z,2.63
2019-04-30T02:16:56.190Z,2.50
2019-04-30T02:19:28.782Z,2.60
2019-04-30T02:22:00.699Z,2.67
2019-04-30T02:24:32.060Z,2.53
2019-04-30T02:27:03.397Z,3.03
2019-04-30T02:29:34.666Z,2.50
2019-04-30T02:32:06.095Z,2.60
2019-04-30T02:34:44.482Z,3.17
2019-04-30T02:37:21.114Z,3.00
2019-04-30T02:39:52.622Z,2.90
2019-04-30T02:42:24.293Z,2.93
2019-04-30T02:44:56.181Z,3.73
2019-04-30T02:47:30.244Z,2.90
2019-04-30T02:50:15.509Z,3.33
2019-04-30T02:52:40.288Z,3.13
2019-04-30T02:55:14.409Z,3.40
2019-04-30T02:57:45.492Z,3.17
2019-04-30T03:00:20.584Z,3.43
2019-04-30T03:02:51.657Z,3.57
2019-04-30T03:05:23.024Z,3.27
2019-04-30T03:07:54.426Z,3.33
2019-04-30T03:10:25.842Z,3.40
2019-04-30T03:12:59.756Z,3.70
2019-04-30T03:15:30.382Z,3.20
2019-04-30T03:18:11.616Z,3.27
2019-04-30T03:21:04.703Z,3.30
2019-04-30T03:23:36.140Z,3.50
2019-04-30T03:26:12.565Z,3.30
2019-04-30T03:28:40.614Z,3.90
2019-04-30T03:31:12.669Z,3.83
2019-04-30T03:33:43.952Z,3.80
2019-04-30T03:36:15.062Z,3.83
2019-04-30T03:38:46.449Z,4.10
2019-04-30T03:41:19.809Z,4.10
2019-04-30T03:43:50.559Z,5.10
2019-04-30T03:46:21.620Z,4.10
2019-04-30T03:48:52.898Z,4.13
2019-04-30T03:51:24.299Z,4.93
2019-04-30T03:53:55.681Z,4.80
2019-04-30T03:56:29.632Z,4.40
2019-04-30T03:59:00.356Z,5.10
2019-04-30T04:01:49.621Z,5.23
2019-04-30T04:04:30.987Z,5.40
2019-04-30T04:07:21.425Z,6.00
2019-04-30T04:09:59.876Z,5.67
2019-04-30T04:12:31.457Z,5.67
2019-04-30T04:15:03.948Z,5.47
2019-04-30T04:17:39.453Z,5.40
2019-04-30T04:20:10.568Z,5.87
2019-04-30T04:22:42.319Z,5.63
2019-04-30T04:25:13.915Z,5.33
2019-04-30T04:27:45.503Z,5.60
2019-04-30T04:30:16.995Z,5.23
2019-04-30T04:32:50.096Z,5.07
2019-04-30T04:35:21.936Z,5.50
2019-04-30T04:37:53.339Z,5.07
2019-04-30T04:40:24.821Z,5.20
2019-04-30T04:42:56.145Z,5.40
2019-04-30T04:45:27.287Z,5.70
2019-04-30T04:48:00.050Z,5.17
2019-04-30T04:50:32.530Z,5.43
2019-04-30T04:53:03.877Z,5.83
2019-04-30T04:55:35.112Z,6.77
2019-04-30T04:58:06.199Z,6.30
2019-04-30T05:00:39.186Z,6.20
2019-04-30T05:03:20.174Z,6.07
2019-04-30T05:05:51.632Z,5.27
2019-04-30T05:08:22.814Z,5.30
2019-04-30T05:10:53.990Z,5.53
2019-04-30T05:13:25.109Z,5.17
2019-04-30T05:15:56.077Z,4.67
2019-04-30T05:18:29.014Z,5.10
2019-04-30T05:21:00.502Z,4.83
2019-04-30T05:23:31.506Z,4.87
2019-04-30T05:26:02.895Z,5.20
2019-04-30T05:28:33.904Z,4.53
2019-04-30T05:31:05.149Z,4.53
2019-04-30T05:33:36.455Z,4.10
2019-04-30T05:36:09.352Z,4.37
2019-04-30T05:38:41.031Z,4.03
2019-04-30T05:41:12.486Z,4.10
2019-04-30T05:43:43.939Z,4.00
2019-04-30T05:46:14.952Z,4.50
2019-04-30T05:48:46.180Z,4.17
2019-04-30T05:51:19.349Z,3.93
2019-04-30T05:53:50.621Z,4.60
2019-04-30T05:56:21.942Z,4.10
2019-04-30T05:58:55.650Z,3.80
2019-04-30T06:01:26.925Z,4.83
2019-04-30T06:03:59.484Z,4.43
2019-04-30T06:06:30.619Z,5.50
2019-04-30T06:09:22.585Z,5.00
2019-04-30T06:12:04.397Z,5.13
2019-04-30T06:14:49.307Z,5.83
2019-04-30T06:17:20.423Z,5.40
2019-04-30T06:19:51.763Z,4.67
2019-04-30T06:22:23.615Z,5.43
2019-04-30T06:24:56.291Z,5.60
2019-04-30T06:27:29.133Z,5.63
2019-04-30T06:30:00.568Z,3.77
2019-04-30T06:32:33.355Z,3.63
2019-04-30T06:35:04.867Z,4.60
2019-04-30T06:37:36.447Z,4.57
2019-04-30T06:40:09.395Z,4.60
2019-04-30T06:42:41.432Z,4.07
2019-04-30T06:45:12.957Z,4.37
2019-04-30T06:47:44.841Z,4.10
2019-04-30T06:50:16.482Z,4.20
2019-04-30T06:52:56.607Z,3.20
2019-04-30T06:55:20.791Z,3.13
2019-04-30T06:57:52.152Z,2.83
2019-04-30T07:00:32.802Z,3.03
2019-04-30T07:03:00.198Z,2.60
2019-04-30T07:05:33.612Z,2.70
2019-04-30T07:08:22.085Z,3.30
2019-04-30T07:11:11.237Z,3.07
2019-04-30T07:13:46.078Z,3.20
2019-04-30T07:16:18.974Z,3.10
2019-04-30T07:18:50.244Z,3.83
2019-04-30T07:21:21.675Z,2.70
2019-04-30T07:23:53.148Z,3.20
2019-04-30T07:26:24.878Z,3.20
2019-04-30T07:28:55.891Z,3.67
2019-04-30T07:31:29.411Z,3.03
2019-04-30T07:34:00.453Z,3.20
2019-04-30T07:36:45.914Z,3.73
2019-04-30T07:39:06.451Z,3.80
2019-04-30T07:41:40.057Z,4.40
2019-04-30T07:44:16.670Z,5.07
2019-04-30T07:46:45.272Z,3.90
2019-04-30T07:49:16.651Z,4.03
2019-04-30T07:51:51.867Z,3.93
2019-04-30T07:54:21.871Z,3.57
2019-04-30T07:56:53.138Z,3.00
2019-04-30T07:59:24.580Z,3.77
2019-04-30T08:02:06.579Z,2.60
2019-04-30T08:04:50.916Z,2.60
2019-04-30T08:07:21.576Z,2.53
2019-04-30T08:09:52.911Z,2.40
2019-04-30T08:12:30.391Z,2.20
2019-04-30T08:14:59.326Z,2.40
2019-04-30T08:17:30.109Z,2.53
2019-04-30T08:20:01.388Z,2.27
2019-04-30T08:22:32.441Z,2.47
2019-04-30T08:25:03.667Z,2.43
2019-04-30T08:27:35.066Z,3.13
2019-04-30T08:30:20.717Z,2.77
2019-04-30T08:32:40.081Z,3.43
2019-04-30T08:35:11.509Z,2.80
2019-04-30T08:37:42.905Z,4.00
2019-04-30T08:40:14.196Z,2.93
2019-04-30T08:42:45.585Z,2.93
2019-04-30T08:45:19.485Z,2.93
2019-04-30T08:47:50.550Z,2.93
2019-04-30T08:50:23.727Z,2.67
2019-04-30T08:52:55.007Z,2.80
2019-04-30T08:55:26.365Z,2.80
2019-04-30T08:58:09.696Z,3.63
2019-04-30T09:00:30.838Z,2.93
2019-04-30T09:03:02.075Z,2.53
2019-04-30T09:05:50.577Z,2.10
2019-04-30T09:08:21.851Z,2.63
2019-04-30T09:10:53.123Z,2.27
2019-04-30T09:13:24.556Z,2.63
2019-04-30T09:15:56.094Z,2.90
2019-04-30T09:18:29.164Z,2.53
2019-04-30T09:21:06.028Z,3.03
2019-04-30T09:23:47.516Z,2.57
2019-04-30T09:26:08.708Z,2.67
2019-04-30T09:28:41.055Z,2.97
2019-04-30T09:31:12.528Z,2.20
2019-04-30T09:33:43.957Z,2.30
2019-04-30T09:36:15.324Z,1.90
2019-04-30T09:38:46.310Z,2.40
2019-04-30T09:41:19.209Z,2.63
2019-04-30T09:43:50.495Z,1.90
2019-04-30T09:46:26.840Z,2.13
2019-04-30T09:48:54.663Z,1.57
2019-04-30T09:51:26.192Z,1.97
2019-04-30T09:54:00.650Z,2.13
2019-04-30T09:56:30.474Z,1.70
2019-04-30T09:59:01.868Z,2.00
2019-04-30T10:01:33.396Z,1.67
2019-04-30T10:04:05.651Z,1.40
2019-04-30T10:06:40.135Z,1.30
2019-04-30T10:09:12.159Z,1.43
2019-04-30T10:11:55.922Z,1.50
2019-04-30T10:14:26.837Z,1.60
2019-04-30T10:17:22.920Z,1.50
2019-04-30T10:19:54.105Z,1.53
2019-04-30T10:22:25.568Z,1.50
2019-04-30T10:24:56.848Z,1.70
2019-04-30T10:27:29.370Z,1.37
2019-04-30T10:30:01.536Z,1.60
2019-04-30T10:32:33.003Z,1.60
2019-04-30T10:35:04.361Z,1.70
2019-04-30T10:37:35.804Z,3.40
2019-04-30T10:40:07.327Z,1.87
2019-04-30T10:42:39.288Z,1.53
2019-04-30T10:45:10.857Z,1.87
2019-04-30T10:47:42.550Z,1.67
2019-04-30T10:50:14.357Z,1.60
2019-04-30T10:52:45.756Z,1.43
2019-04-30T10:55:17.204Z,1.40
2019-04-30T10:57:49.546Z,1.70
2019-04-30T11:00:24.460Z,1.57
2019-04-30T11:02:55.767Z,0.90
2019-04-30T11:05:28.928Z,1.20
2019-04-30T11:08:00.248Z,0.97
2019-04-30T11:10:32.107Z,1.00
2019-04-30T11:13:03.719Z,0.90
2019-04-30T11:15:35.024Z,1.50
2019-04-30T11:18:06.956Z,1.20
2019-04-30T11:20:39.703Z,1.30
2019-04-30T11:23:14.540Z,1.40
2019-04-30T11:25:45.196Z,1.30
2019-04-30T11:28:16.987Z,1.50
2019-04-30T11:30:50.378Z,1.20
2019-04-30T11:33:22.008Z,1.30
2019-04-30T11:36:02.305Z,1.30
2019-04-30T11:38:26.384Z,1.00
2019-04-30T11:40:58.462Z,1.00
2019-04-30T11:43:29.933Z,1.20
2019-04-30T11:46:40.453Z,1.00
2019-04-30T11:49:11.858Z,1.40
2019-04-30T11:51:43.192Z,1.67
2019-04-30T11:54:14.614Z,1.43
2019-04-30T11:56:45.604Z,1.20
2019-04-30T11:59:16.693Z,1.30
2019-04-30T12:01:49.716Z,1.07
2019-04-30T12:04:20.860Z,1.00
2019-04-30T12:06:53.583Z,1.17
2019-04-30T12:09:55.715Z,1.20
2019-04-30T12:12:28.849Z,1.07
2019-04-30T12:15:02.661Z,1.10
2019-04-30T12:17:32.787Z,1.13
2019-04-30T12:20:04.327Z,1.67
2019-04-30T12:22:35.579Z,1.03
2019-04-30T12:25:07.261Z,1.30
2019-04-30T12:27:38.712Z,1.53
2019-04-30T12:30:10.423Z,2.67
2019-04-30T12:32:41.718Z,0.90
2019-04-30T12:35:13.726Z,1.20
2019-04-30T12:37:44.851Z,0.97
2019-04-30T12:40:26.606Z,0.97
2019-04-30T12:42:48.960Z,0.80
2019-04-30T12:45:20.459Z,1.10
2019-04-30T12:47:55.623Z,1.00
2019-04-30T12:50:33.853Z,1.17
2019-04-30T12:53:09.477Z,0.80
2019-04-30T12:56:00.250Z,1.70
2019-04-30T12:58:31.771Z,1.00
2019-04-30T13:01:03.322Z,0.90
2019-04-30T13:03:34.643Z,0.90
2019-04-30T13:06:06.717Z,0.90
2019-04-30T13:08:39.126Z,0.70
2019-04-30T13:11:13.057Z,0.60
2019-04-30T13:13:44.149Z,0.90
2019-04-30T13:16:16.110Z,0.60
2019-04-30T13:18:49.402Z,0.83
2019-04-30T13:21:20.513Z,0.90
2019-04-30T13:23:51.745Z,0.80
2019-04-30T13:26:22.836Z,0.73
2019-04-30T13:29:05.411Z,0.70
2019-04-30T13:31:36.681Z,0.80
2019-04-30T13:34:25.456Z,0.70
2019-04-30T13:36:56.489Z,0.70
2019-04-30T13:39:33.045Z,0.70
2019-04-30T13:42:15.804Z,0.70
2019-04-30T13:44:41.210Z,0.73
2019-04-30T13:47:13.329Z,0.73
2019-04-30T13:49:44.575Z,0.80
2019-04-30T13:52:15.945Z,0.47
2019-04-30T13:54:46.915Z,0.80
2019-04-30T13:57:17.820Z,0.50
2019-04-30T13:59:51.018Z,0.70
2019-04-30T14:02:21.831Z,0.70
2019-04-30T14:05:09.650Z,1.10
2019-04-30T14:08:09.540Z,0.60
2019-04-30T14:10:43.289Z,0.70
2019-04-30T14:13:14.727Z,1.13
2019-04-30T14:15:47.811Z,0.93
2019-04-30T14:18:28.406Z,0.70
2019-04-30T14:20:52.171Z,1.00
2019-04-30T14:23:23.391Z,1.10
2019-04-30T14:25:56.683Z,1.60
2019-04-30T14:28:29.158Z,1.73
2019-04-30T14:31:00.688Z,1.73
2019-04-30T14:33:31.609Z,1.40
2019-04-30T14:36:03.852Z,1.50
2019-04-30T14:38:36.280Z,1.40
2019-04-30T14:41:08.606Z,1.57
2019-04-30T14:43:45.245Z,2.23
2019-04-30T14:46:35.937Z,1.40
2019-04-30T14:49:26.529Z,1.40
2019-04-30T14:51:59.582Z,1.17
2019-04-30T14:54:53.092Z,1.37
2019-04-30T14:57:42.060Z,2.10
2019-04-30T15:00:35.100Z,1.60
2019-04-30T15:03:09.866Z,1.30
2019-04-30T15:05:48.350Z,1.43
2019-04-30T15:08:13.880Z,1.40
2019-04-30T15:10:45.696Z,1.60
2019-04-30T15:13:17.100Z,2.00
2019-04-30T15:15:49.134Z,1.70
2019-04-30T15:18:21.685Z,1.80
2019-04-30T15:20:52.895Z,2.80
2019-04-30T15:23:41.408Z,4.13
2019-04-30T15:26:22.246Z,3.87
2019-04-30T15:28:45.671Z,4.50
2019-04-30T15:31:18.357Z,3.60
2019-04-30T15:34:11.129Z,4.20
2019-04-30T15:36:42.488Z,4.50
2019-04-30T15:39:42.132Z,4.73
2019-04-30T15:42:14.117Z,3.00
2019-04-30T15:44:45.931Z,3.17
2019-04-30T15:47:18.956Z,3.10
2019-04-30T15:49:50.280Z,12.80
2019-04-30T15:52:21.637Z,6.80
2019-04-30T15:54:53.201Z,5.87
2019-04-30T15:57:25.669Z,5.87
2019-04-30T15:59:56.710Z,2.87
2019-04-30T16:02:56.338Z,2.50
2019-04-30T16:05:45.353Z,1.87
2019-04-30T16:08:28.939Z,1.80
2019-04-30T16:11:25.342Z,1.63
2019-04-30T16:14:13.455Z,1.93
2019-04-30T16:16:49.223Z,2.83
2019-04-30T16:19:20.702Z,4.20
2019-04-30T16:21:51.659Z,6.00
2019-04-30T16:24:24.112Z,4.27
2019-04-30T16:26:55.364Z,3.70
2019-04-30T16:29:26.409Z,3.73
2019-04-30T16:31:59.164Z,2.43
2019-04-30T16:34:30.556Z,1.90
2019-04-30T16:37:01.819Z,1.80
2019-04-30T16:39:32.915Z,5.87
2019-04-30T16:42:04.040Z,2.50
2019-04-30T16:44:35.056Z,1.90
2019-04-30T16:47:13.433Z,1.67
2019-04-30T16:49:38.856Z,1.70
2019-04-30T16:52:10.070Z,2.17
2019-04-30T16:54:41.170Z,1.70
2019-04-30T16:57:12.455Z,2.40
2019-04-30T16:59:43.687Z,2.50
2019-04-30T17:02:15.344Z,2.20
2019-04-30T17:04:54.631Z,3.43
2019-04-30T17:07:43.478Z,2.40
2019-04-30T17:10:36.319Z,3.30
2019-04-30T17:13:29.350Z,3.47
2019-04-30T17:16:10.958Z,2.73
2019-04-30T17:18:41.757Z,3.93
2019-04-30T17:21:14.334Z,3.50
2019-04-30T17:23:45.414Z,2.40
2019-04-30T17:26:16.460Z,3.47
2019-04-30T17:28:49.397Z,2.80
2019-04-30T17:31:20.359Z,2.23
2019-04-30T17:33:51.351Z,2.53
2019-04-30T17:36:22.354Z,2.60
2019-04-30T17:38:53.387Z,2.40
2019-04-30T17:41:24.532Z,2.20
2019-04-30T17:43:55.533Z,2.43
2019-04-30T17:46:28.475Z,3.17
2019-04-30T17:48:59.682Z,2.53
2019-04-30T17:51:31.161Z,2.73
2019-04-30T17:54:15.069Z,2.70
2019-04-30T17:56:46.773Z,2.77
2019-04-30T17:59:18.772Z,3.50
2019-04-30T18:01:59.623Z,2.60
2019-04-30T18:04:31.374Z,2.77
2019-04-30T18:07:02.542Z,1.90
2019-04-30T18:09:34.017Z,1.50
2019-04-30T18:12:05.118Z,3.53
2019-04-30T18:14:36.356Z,1.30
2019-04-30T18:17:09.298Z,1.83
2019-04-30T18:20:02.474Z,2.00
2019-04-30T18:22:48.924Z,1.40
2019-04-30T18:25:38.956Z,1.50
2019-04-30T18:28:10.324Z,1.57
2019-04-30T18:30:42.146Z,2.30
2019-04-30T18:33:13.453Z,1.73
2019-04-30T18:35:44.863Z,2.10
2019-04-30T18:38:17.778Z,1.30
2019-04-30T18:40:50.389Z,1.60
2019-04-30T18:43:21.821Z,1.40
2019-04-30T18:45:53.548Z,1.20
2019-04-30T18:48:26.097Z,1.40
2019-04-30T18:50:57.853Z,1.30
2019-04-30T18:53:30.903Z,1.00
2019-04-30T18:56:02.462Z,1.30
2019-04-30T18:58:39.917Z,1.22
2019-04-30T19:01:09.274Z,3.15
2019-04-30T19:03:40.873Z,1.60
2019-04-30T19:06:23.950Z,1.30
2019-04-30T19:09:00.368Z,1.22
2019-04-30T19:11:43.021Z,1.55
2019-04-30T19:14:32.094Z,1.42
2019-04-30T19:17:25.486Z,1.50
2019-04-30T19:20:18.780Z,1.57
2019-04-30T19:22:50.747Z,1.40
2019-04-30T19:25:23.823Z,1.25
2019-04-30T19:28:09.413Z,1.77
2019-04-30T19:30:32.513Z,1.60
2019-04-30T19:33:03.542Z,1.77
2019-04-30T19:35:35.204Z,1.27
2019-04-30T19:38:09.077Z,1.72
2019-04-30T19:40:40.566Z,2.08
2019-04-30T19:43:12.303Z,4.37
2019-04-30T19:45:44.102Z,1.40
2019-04-30T19:48:16.188Z,8.00
2019-04-30T19:50:48.894Z,5.45
2019-04-30T19:53:22.261Z,3.50
2019-04-30T19:55:53.905Z,2.22
2019-04-30T19:58:37.982Z,1.40
2019-04-30T20:00:59.551Z,1.50
2019-04-30T20:03:31.325Z,1.55
2019-04-30T20:06:03.694Z,2.10
2019-04-30T20:08:38.782Z,5.35
2019-04-30T20:11:10.561Z,2.65
2019-04-30T20:13:42.530Z,2.80
2019-04-30T20:16:14.085Z,1.47
2019-04-30T20:18:45.743Z,1.47
2019-04-30T20:21:28.045Z,1.65
2019-04-30T20:23:53.740Z,1.20
2019-04-30T20:26:26.004Z,1.47
2019-04-30T20:28:59.104Z,1.20
2019-04-30T20:31:30.896Z,1.00
2019-04-30T20:34:02.221Z,1.30
2019-04-30T20:36:33.668Z,1.30
2019-04-30T20:39:25.228Z,1.60
2019-04-30T20:41:57.185Z,1.10
2019-04-30T20:44:29.184Z,1.27
2019-04-30T20:47:00.870Z,1.35
2019-04-30T20:49:32.508Z,2.17
2019-04-30T20:52:04.190Z,1.80
2019-04-30T20:54:35.636Z,5.65
2019-04-30T20:57:08.763Z,1.67
2019-04-30T20:59:40.552Z,5.53
2019-04-30T21:02:11.936Z,1.30
2019-04-30T21:04:43.546Z,2.70
2019-04-30T21:07:16.036Z,1.35
2019-04-30T21:09:47.316Z,1.47
2019-04-30T21:12:18.995Z,1.12
2019-04-30T21:14:50.176Z,1.10
2019-04-30T21:17:21.802Z,2.25
2019-04-30T21:19:53.347Z,1.25
2019-04-30T21:22:25.022Z,1.47
2019-04-30T21:24:56.392Z,1.47
2019-04-30T21:27:28.288Z,4.87
2019-04-30T21:30:01.141Z,4.90
2019-04-30T21:32:50.258Z,1.27
2019-04-30T21:35:43.122Z,1.67
2019-04-30T21:38:14.674Z,2.27
2019-04-30T21:40:46.131Z,1.87
2019-04-30T21:43:17.725Z,1.47
2019-04-30T21:45:49.431Z,1.52
2019-04-30T21:48:21.160Z,1.30
2019-04-30T21:50:52.435Z,1.40
2019-04-30T21:53:23.733Z,1.35
2019-04-30T21:55:55.457Z,1.02
2019-04-30T21:58:29.059Z,2.70
2019-04-30T22:01:23.743Z,1.12
2019-04-30T22:03:55.743Z,1.20
2019-04-30T22:06:29.606Z,0.98
2019-04-30T22:09:01.264Z,1.47
2019-04-30T22:11:34.144Z,1.30
2019-04-30T22:14:05.895Z,1.57
2019-04-30T22:16:39.800Z,1.22
2019-04-30T22:19:11.592Z,1.30
2019-04-30T22:21:43.127Z,1.67
2019-04-30T22:24:14.848Z,1.07
2019-04-30T22:26:46.429Z,1.85
2019-04-30T22:29:19.156Z,1.40
2019-04-30T22:31:50.814Z,1.72
2019-04-30T22:34:22.535Z,1.50
2019-04-30T22:36:53.960Z,1.60
2019-04-30T22:39:56.344Z,1.65
2019-04-30T22:42:32.773Z,1.72
2019-04-30T22:45:06.897Z,2.10
2019-04-30T22:47:38.373Z,1.50
2019-04-30T22:50:10.572Z,1.70
2019-04-30T22:52:41.975Z,1.60
2019-04-30T22:55:13.624Z,2.00
2019-04-30T22:57:45.027Z,1.90
2019-04-30T23:00:24.943Z,1.98
2019-04-30T23:03:02.480Z,1.70
2019-04-30T23:05:34.290Z,1.70
2019-04-30T23:08:05.798Z,1.80
2019-04-30T23:10:37.414Z,1.95
2019-04-30T23:13:09.156Z,1.77
2019-04-30T23:15:41.096Z,1.75
2019-04-30T23:18:12.523Z,1.47
2019-04-30T23:20:44.114Z,1.45
2019-04-30T23:23:15.518Z,1.87
2019-04-30T23:25:47.444Z,1.52
2019-04-30T23:28:18.785Z,1.40
2019-04-30T23:30:50.124Z,1.67
2019-04-30T23:33:21.683Z,1.40
2019-04-30T23:35:53.544Z,1.45
2019-04-30T23:38:25.119Z,1.22
2019-04-30T23:40:56.542Z,1.37
2019-04-30T23:43:27.877Z,1.37
2019-04-30T23:45:59.146Z,1.27
2019-04-30T23:48:30.390Z,1.45
2019-04-30T23:51:01.713Z,1.30
2019-04-30T23:53:32.957Z,1.50
2019-04-30T23:56:04.331Z,1.15
2019-04-30T23:58:35.933Z,0.90
